CheckWX is a tool to help pilots better visualize weather data.  It is not intended as a substitute for an official pre-flight weather briefing.

12:26:10 UTC

KHYA TAF
Barnstable Municipal-Boardman / Polando Field Airport
Hyannis, Massachusetts, USA
KHYA 221123Z 2212/2312 03011KT 1SM -RA BR OVC005 FM221500 27008KT P6SM OVC003 FM222000 28012G20KT P6SM VCSH OVC008 FM222300 26013G25KT P6SM OVC020

Mar-22@
12:00 UTC

Mar-22 @ 12:00 UTC

Mar-22@
15:00 UTC

Mar-22 @ 15:00 UTC

KHYA 221123Z 2212/2312 03011KT 1SM -RA BR OVC005
Wind
  • 030° at 11 KTS
Conditions
Light Rain, Mist
Cloud Levels
  • Overcast at 500' AGL

Mar-22@
15:00 UTC

Mar-22 @ 15:00 UTC

Mar-22@
20:00 UTC

Mar-22 @ 20:00 UTC

FM221500 27008KT P6SM OVC003

From

From Standard forecast or significant change

Wind
  • 270° at 8 KTS
Cloud Levels
  • Overcast at 300' AGL

Mar-22@
20:00 UTC

Mar-22 @ 20:00 UTC

Mar-22@
23:00 UTC

Mar-22 @ 23:00 UTC

FM222000 28012G20KT P6SM VCSH OVC008

From

From Standard forecast or significant change

Wind
  • 280° at 12 KTS
  • {Gusting to 20 KTS
Cloud Levels
  • Overcast at 800' AGL

Mar-22@
23:00 UTC

Mar-22 @ 23:00 UTC

Mar-23@
12:00 UTC

Mar-23 @ 12:00 UTC

FM222300 26013G25KT P6SM OVC020

From

From Standard forecast or significant change

Wind
  • 260° at 13 KTS
  • {Gusting to 25 KTS
Cloud Levels
  • Overcast at 2,000' AGL